createdAt,value
2023-04-07T00:01:01.025Z,1.5
2023-04-07T00:02:01.564Z,1.4
2023-04-07T00:07:01.070Z,1.3
2023-04-07T00:08:01.249Z,1.5
2023-04-07T00:11:00.978Z,1.2
2023-04-07T00:14:01.113Z,1.3
2023-04-07T00:16:01.147Z,1.2
2023-04-07T00:19:01.146Z,1.2
2023-04-07T00:22:01.148Z,1.1
2023-04-07T00:24:01.144Z,1.3
2023-04-07T00:27:00.950Z,1.1
2023-04-07T00:28:01.181Z,1.3
2023-04-07T00:31:00.984Z,1
2023-04-07T00:32:01.142Z,1.2
2023-04-07T00:34:01.041Z,1
2023-04-07T00:37:01.032Z,0.8
2023-04-07T00:38:01.057Z,0.9
2023-04-07T00:40:01.038Z,0.7
2023-04-07T00:42:01.049Z,0.8
2023-04-07T00:44:01.049Z,0.8
2023-04-07T00:47:00.986Z,0.7
2023-04-07T00:48:01.202Z,0.8
2023-04-07T00:51:00.979Z,0.7
2023-04-07T00:52:01.086Z,0.6
2023-04-07T00:55:00.956Z,0.5
2023-04-07T00:56:01.048Z,0.7
2023-04-07T00:58:01.115Z,0.6
2023-04-07T01:00:01.079Z,0.7
2023-04-07T01:02:01.102Z,0.6
2023-04-07T01:05:01.053Z,0.6
2023-04-07T01:06:01.074Z,0.7
2023-04-07T01:08:01.057Z,0.8
2023-04-07T01:09:01.064Z,0.7
2023-04-07T01:13:01.017Z,0.5
2023-04-07T01:14:01.117Z,0.4
2023-04-07T01:17:00.985Z,0.5
2023-04-07T01:18:01.066Z,0.4
2023-04-07T01:20:01.106Z,0.3
2023-04-07T01:23:01.018Z,0.3
2023-04-07T01:24:01.094Z,0.4
2023-04-07T01:27:01.106Z,0.4
2023-04-07T01:28:01.091Z,0.3
2023-04-07T01:29:01.108Z,0.4
2023-04-07T01:33:01.055Z,0.3
2023-04-07T01:35:00.993Z,0.4
2023-04-07T01:36:01.041Z,0.3
2023-04-07T01:38:01.094Z,0.5
2023-04-07T01:41:00.976Z,0.4
2023-04-07T01:42:01.114Z,0.3
2023-04-07T01:45:00.993Z,0.2
2023-04-07T01:46:01.068Z,0.1
2023-04-07T01:50:01.098Z,0.1
2023-04-07T01:52:01.083Z,0.2
2023-04-07T01:54:01.117Z,-0.1
2023-04-07T01:59:00.986Z,-0.2
2023-04-07T02:00:01.092Z,-0.1
2023-04-07T02:02:01.176Z,-0.1
2023-04-07T02:06:01.113Z,-0.2
2023-04-07T02:08:01.040Z,0
2023-04-07T02:11:01.003Z,0
2023-04-07T02:13:01.045Z,-0.1
2023-04-07T02:15:01.169Z,-0.2
2023-04-07T02:17:00.975Z,-0.2
2023-04-07T02:18:01.120Z,0
2023-04-07T02:20:01.055Z,-0.1
2023-04-07T02:22:01.084Z,0
2023-04-07T02:23:01.206Z,-0.1
2023-04-07T02:28:01.091Z,0
2023-04-07T02:30:01.348Z,0
2023-04-07T02:32:01.075Z,-0.1
2023-04-07T02:36:01.071Z,-0.1
2023-04-07T02:37:01.091Z,0
2023-04-07T02:38:01.088Z,0.1
2023-04-07T02:40:01.057Z,-0.1
2023-04-07T02:45:01.013Z,-0.1
2023-04-07T02:46:01.076Z,0
2023-04-07T02:48:01.116Z,0
2023-04-07T02:49:01.186Z,0.1
2023-04-07T02:51:00.979Z,0
2023-04-07T02:52:01.042Z,0.1
2023-04-07T02:57:01.034Z,0.2
2023-04-07T02:58:01.038Z,0.1
2023-04-07T03:01:01.127Z,0.2
2023-04-07T03:03:01.108Z,0.1
2023-04-07T03:05:00.989Z,0.3
2023-04-07T03:06:01.043Z,0.2
2023-04-07T03:08:01.148Z,0.2
2023-04-07T03:10:01.031Z,0.4
2023-04-07T03:13:01.110Z,0.5
2023-04-07T03:15:00.952Z,0.4
2023-04-07T03:17:01.059Z,0.5
2023-04-07T03:19:00.998Z,0.4
2023-04-07T03:20:01.041Z,0.5
2023-04-07T03:22:01.135Z,0.5
2023-04-07T03:26:01.079Z,0.4
2023-04-07T03:28:01.040Z,0.5
2023-04-07T03:30:01.173Z,0.3
2023-04-07T03:32:01.075Z,0.3
2023-04-07T03:33:01.122Z,0.5
2023-04-07T03:37:00.997Z,0.5
2023-04-07T03:38:01.055Z,0.4
2023-04-07T03:46:01.182Z,0.3
2023-04-07T03:48:01.161Z,0.3
2023-04-07T03:50:01.084Z,0.5
2023-04-07T03:55:01.029Z,0.3
2023-04-07T03:56:01.127Z,0.4
2023-04-07T04:01:00.990Z,0.3
2023-04-07T04:06:01.118Z,0.2
2023-04-07T04:08:01.155Z,0.2
2023-04-07T04:13:00.998Z,0
2023-04-07T04:15:01.054Z,-0.1
2023-04-07T04:17:00.959Z,-0.2
2023-04-07T04:19:00.964Z,0
2023-04-07T04:20:01.076Z,-0.1
2023-04-07T04:23:01.014Z,-0.3
2023-04-07T04:27:01.033Z,-0.4
2023-04-07T04:29:00.995Z,-0.5
2023-04-07T04:31:01.059Z,-0.6
2023-04-07T04:32:01.158Z,-0.5
2023-04-07T04:38:01.048Z,-0.5
2023-04-07T04:40:01.081Z,-0.5
2023-04-07T04:42:01.064Z,-0.7
2023-04-07T04:44:01.118Z,-0.5
2023-04-07T04:46:01.148Z,-0.6
2023-04-07T04:53:00.979Z,-0.6
2023-04-07T04:54:01.156Z,-0.5
2023-04-07T04:56:01.241Z,-0.2
2023-04-07T04:58:01.047Z,0
2023-04-07T05:00:01.136Z,0.3
2023-04-07T05:01:01.174Z,0.7
2023-04-07T05:02:01.164Z,0.6
2023-04-07T05:04:01.234Z,0.8
2023-04-07T05:06:01.128Z,0.8
2023-04-07T05:08:01.074Z,0.5
2023-04-07T05:12:01.078Z,0.4
2023-04-07T05:14:01.193Z,0.4
2023-04-07T05:17:00.959Z,0.3
2023-04-07T05:19:01.041Z,0.2
2023-04-07T05:21:01.073Z,0.1
2023-04-07T05:23:01.103Z,0
2023-04-07T05:24:01.189Z,0.1
2023-04-07T05:27:01.051Z,-0.1
2023-04-07T05:29:01.061Z,0
2023-04-07T05:30:01.296Z,0.2
2023-04-07T05:32:01.004Z,0.3
2023-04-07T05:33:01.017Z,0.1
2023-04-07T05:34:01.049Z,0.3
2023-04-07T05:36:01.210Z,0.2
2023-04-07T05:38:01.271Z,0.4
2023-04-07T05:41:01.012Z,0.4
2023-04-07T05:43:00.980Z,0.2
2023-04-07T05:44:01.125Z,0.5
2023-04-07T05:45:01.214Z,0.4
2023-04-07T05:48:01.123Z,0.6
2023-04-07T05:49:13.262Z,0.3
2023-04-07T05:50:01.307Z,0.6
2023-04-07T05:54:01.116Z,0.6
2023-04-07T05:57:01.125Z,0.7
2023-04-07T06:00:01.417Z,1.1
2023-04-07T06:02:01.279Z,1.5
2023-04-07T06:04:01.164Z,1.9
2023-04-07T06:05:01.302Z,2.3
2023-04-07T06:06:01.294Z,2.6
2023-04-07T06:09:01.215Z,3.8
2023-04-07T06:10:01.286Z,4.3
2023-04-07T06:12:01.285Z,5
2023-04-07T06:14:01.319Z,5.5
2023-04-07T06:15:01.288Z,5.8
2023-04-07T06:17:01.022Z,6.1
2023-04-07T06:18:01.062Z,6.3
2023-04-07T06:20:01.088Z,6.3
2023-04-07T06:22:01.106Z,6.1
2023-04-07T06:24:01.045Z,5.9
2023-04-07T06:26:01.060Z,5.8
2023-04-07T06:28:01.178Z,5.6
2023-04-07T06:29:01.157Z,5.7
2023-04-07T06:34:01.138Z,5.6
2023-04-07T06:36:01.077Z,5.5
2023-04-07T06:38:01.141Z,5.4
2023-04-07T06:40:01.110Z,5.2
2023-04-07T06:42:01.168Z,5.1
2023-04-07T06:45:01.057Z,5.2
2023-04-07T06:46:01.180Z,5.1
2023-04-07T06:52:01.054Z,5.5
2023-04-07T06:55:00.997Z,5.5
2023-04-07T06:57:00.971Z,5.4
2023-04-07T06:58:01.060Z,5.5
2023-04-07T07:00:01.151Z,5.7
2023-04-07T07:02:01.091Z,5.9
2023-04-07T07:04:01.191Z,6.1
2023-04-07T07:06:01.134Z,6
2023-04-07T07:08:01.032Z,6.2
2023-04-07T07:11:01.131Z,6.3
2023-04-07T07:16:01.256Z,6.6
2023-04-07T07:18:01.147Z,6.5
2023-04-07T07:20:01.049Z,6.7
2023-04-07T07:23:01.040Z,6.9
2023-04-07T07:24:01.069Z,7
2023-04-07T07:26:01.155Z,6.9
2023-04-07T07:28:01.043Z,7
2023-04-07T07:31:00.999Z,7.2
2023-04-07T07:33:01.038Z,7.3
2023-04-07T07:34:01.105Z,7.4
2023-04-07T07:36:01.123Z,7.5
2023-04-07T07:38:01.137Z,7.6
2023-04-07T07:39:01.144Z,7.5
2023-04-07T07:40:01.152Z,7.7
2023-04-07T07:42:01.114Z,8
2023-04-07T07:46:01.134Z,8.2
2023-04-07T07:50:01.127Z,8.1
2023-04-07T07:52:01.416Z,8
2023-04-07T07:54:01.110Z,7.8
2023-04-07T07:56:01.138Z,7.9
2023-04-07T07:58:01.184Z,8
2023-04-07T08:01:01.016Z,8.2
2023-04-07T08:02:01.101Z,8
2023-04-07T08:08:01.250Z,7.9
2023-04-07T08:10:01.176Z,7.8
2023-04-07T08:11:01.271Z,7.9
2023-04-07T08:12:01.340Z,8
2023-04-07T08:13:01.321Z,7.9
2023-04-07T08:16:01.309Z,7.8
2023-04-07T08:20:01.287Z,7.9
2023-04-07T08:21:01.336Z,8
2023-04-07T08:23:01.091Z,7.9
2023-04-07T08:24:01.094Z,8
2023-04-07T08:26:01.115Z,7.9
2023-04-07T08:27:01.100Z,8
2023-04-07T08:28:01.198Z,7.8
2023-04-07T08:32:01.247Z,7.9
2023-04-07T08:36:01.181Z,8.2
2023-04-07T08:37:01.308Z,8
2023-04-07T08:39:01.015Z,8
2023-04-07T08:40:01.064Z,8.1
2023-04-07T08:43:01.003Z,8.1
2023-04-07T08:46:01.085Z,8
2023-04-07T08:50:01.196Z,8
2023-04-07T08:53:00.976Z,8.1
2023-04-07T08:54:01.308Z,8.2
2023-04-07T08:59:00.992Z,8.4
2023-04-07T09:00:01.230Z,8.3
2023-04-07T09:03:01.122Z,8.3
2023-04-07T09:09:01.059Z,8.2
2023-04-07T09:10:01.125Z,8.3
2023-04-07T09:13:00.986Z,8.2
2023-04-07T09:14:01.107Z,8.3
2023-04-07T09:15:01.257Z,8.2
2023-04-07T09:18:01.160Z,8.5
2023-04-07T09:20:01.111Z,8.5
2023-04-07T09:24:01.104Z,8.6
2023-04-07T09:26:01.173Z,8.6
2023-04-07T09:28:01.133Z,8.8
2023-04-07T09:30:02.067Z,9
2023-04-07T09:32:01.117Z,9
2023-04-07T09:36:01.165Z,8.6
2023-04-07T09:38:01.041Z,8.8
2023-04-07T09:40:01.059Z,8.9
2023-04-07T09:42:01.065Z,8.9
2023-04-07T09:44:01.102Z,9.2
2023-04-07T09:45:01.203Z,9.1
2023-04-07T09:48:01.101Z,9.3
2023-04-07T09:50:01.073Z,9.6
2023-04-07T09:52:01.164Z,9.6
2023-04-07T09:54:01.046Z,9.8
2023-04-07T09:56:01.292Z,10
2023-04-07T09:58:01.075Z,10.3
2023-04-07T10:01:00.990Z,10.6
2023-04-07T10:02:01.189Z,10.7
2023-04-07T10:04:01.091Z,10.8
2023-04-07T10:08:01.028Z,11.3
2023-04-07T10:10:01.062Z,11.3
2023-04-07T10:12:01.105Z,11.3
2023-04-07T10:14:01.088Z,11.5
2023-04-07T10:15:01.188Z,11.4
2023-04-07T10:17:00.996Z,11.3
2023-04-07T10:18:01.132Z,11.1
2023-04-07T10:20:01.136Z,11
2023-04-07T10:22:01.063Z,11.1
2023-04-07T10:24:01.182Z,10.8
2023-04-07T10:26:01.030Z,10.9
2023-04-07T10:31:01.050Z,10.6
2023-04-07T10:33:01.222Z,10.5
2023-04-07T10:37:00.979Z,10.3
2023-04-07T10:38:01.083Z,10.5
2023-04-07T10:40:01.229Z,10.5
2023-04-07T10:42:01.078Z,10.7
2023-04-07T10:45:01.031Z,10.9
2023-04-07T10:47:00.974Z,11.1
2023-04-07T10:48:01.167Z,11
2023-04-07T10:50:01.114Z,11.1
2023-04-07T10:53:00.990Z,11.2
2023-04-07T10:54:01.079Z,11
2023-04-07T10:55:01.081Z,11.1
2023-04-07T10:56:01.160Z,11.2
2023-04-07T10:58:01.084Z,11
2023-04-07T11:01:00.986Z,11.3
2023-04-07T11:03:01.100Z,11.2
2023-04-07T11:04:01.272Z,11.5
2023-04-07T11:06:01.083Z,11.8
2023-04-07T11:08:01.072Z,11.8
2023-04-07T11:10:01.047Z,12
2023-04-07T11:12:01.109Z,11.9
2023-04-07T11:16:01.153Z,11.9
2023-04-07T11:18:01.102Z,11.8
2023-04-07T11:20:01.067Z,11.7
2023-04-07T11:22:01.085Z,11.9
2023-04-07T11:26:01.100Z,11.9
2023-04-07T11:28:01.047Z,11.6
2023-04-07T11:31:01.014Z,11.7
2023-04-07T11:32:01.162Z,11.4
2023-04-07T11:34:01.283Z,11.3
2023-04-07T11:37:01.010Z,11.6
2023-04-07T11:39:00.981Z,11.8
2023-04-07T11:40:01.110Z,11.7
2023-04-07T11:42:01.065Z,11.8
2023-04-07T11:44:01.043Z,12
2023-04-07T11:45:01.115Z,11.8
2023-04-07T11:47:01.023Z,11.6
2023-04-07T11:48:01.223Z,11.7
2023-04-07T11:51:01.112Z,11.6
2023-04-07T11:53:01.000Z,11.4
2023-04-07T11:54:01.078Z,11.5
2023-04-07T11:56:01.219Z,11.4
2023-04-07T11:58:01.197Z,11.5
2023-04-07T12:01:00.968Z,11.5
2023-04-07T12:03:01.027Z,11.6
2023-04-07T12:05:01.050Z,11.5
2023-04-07T12:06:01.086Z,11.3
2023-04-07T12:08:01.107Z,11.3
2023-04-07T12:10:01.103Z,11.3
2023-04-07T12:12:01.069Z,11.3
2023-04-07T12:14:01.051Z,11.1
2023-04-07T12:15:01.196Z,11.3
2023-04-07T12:18:01.341Z,11.1
2023-04-07T12:20:01.080Z,11
2023-04-07T12:22:01.431Z,10.8
2023-04-07T12:24:01.079Z,10.9
2023-04-07T12:26:01.264Z,10.7
2023-04-07T12:28:01.166Z,10.7
2023-04-07T12:31:00.991Z,10.7
2023-04-07T12:32:01.099Z,10.6
2023-04-07T12:34:01.078Z,10.7
2023-04-07T12:36:01.100Z,10.7
2023-04-07T12:38:01.078Z,10.8
2023-04-07T12:41:00.978Z,10.7
2023-04-07T12:43:00.990Z,10.6
2023-04-07T12:44:01.061Z,10.8
2023-04-07T12:46:01.157Z,10.8
2023-04-07T12:48:01.305Z,10.9
2023-04-07T12:50:01.148Z,10.7
2023-04-07T12:52:01.106Z,10.8
2023-04-07T12:54:01.145Z,10.9
2023-04-07T12:56:01.049Z,10.8
2023-04-07T13:01:01.036Z,10.6
2023-04-07T13:03:01.143Z,10.7
2023-04-07T13:05:00.961Z,10.6
2023-04-07T13:07:00.967Z,10.7
2023-04-07T13:08:01.073Z,10.5
2023-04-07T13:10:01.051Z,10.6
2023-04-07T13:12:01.495Z,10.6
2023-04-07T13:14:01.491Z,10.7
2023-04-07T13:15:01.263Z,10.6
2023-04-07T13:17:01.027Z,10.7
2023-04-07T13:19:00.940Z,10.8
2023-04-07T13:22:01.133Z,11
2023-04-07T13:24:01.091Z,11.1
2023-04-07T13:26:01.045Z,11.1
2023-04-07T13:28:01.053Z,11.2
2023-04-07T13:30:01.296Z,11
2023-04-07T13:32:01.050Z,11
2023-04-07T13:34:01.070Z,11
2023-04-07T13:36:01.152Z,11.2
2023-04-07T13:38:01.066Z,11.1
2023-04-07T13:41:00.996Z,11
2023-04-07T13:42:01.165Z,10.9
2023-04-07T13:44:01.063Z,11
2023-04-07T13:46:01.107Z,10.9
2023-04-07T13:50:01.114Z,10.7
2023-04-07T13:52:01.122Z,10.6
2023-04-07T13:55:00.965Z,10.6
2023-04-07T13:57:00.975Z,10.7
2023-04-07T13:58:01.236Z,10.8
2023-04-07T14:00:01.248Z,10.8
2023-04-07T14:02:01.071Z,10.6
2023-04-07T14:03:01.225Z,10.5
2023-04-07T14:04:01.332Z,10.7
2023-04-07T14:06:01.107Z,10.6
2023-04-07T14:08:01.069Z,10.4
2023-04-07T14:11:01.020Z,10.2
2023-04-07T14:12:01.122Z,10.3
2023-04-07T14:17:00.995Z,10.5
2023-04-07T14:18:01.086Z,10.3
2023-04-07T14:20:01.106Z,10.4
2023-04-07T14:23:00.978Z,10.2
2023-04-07T14:24:01.098Z,10.4
2023-04-07T14:27:01.008Z,10.4
2023-04-07T14:28:01.116Z,10.5
2023-04-07T14:32:01.078Z,10.3
2023-04-07T14:34:01.070Z,10.4
2023-04-07T14:39:01.020Z,10.5
2023-04-07T14:40:02.790Z,10.4
2023-04-07T14:44:01.275Z,10.4
2023-04-07T14:46:01.300Z,10.3
2023-04-07T14:49:01.023Z,10.5
2023-04-07T14:50:01.058Z,10.4
2023-04-07T14:53:01.067Z,10.4
2023-04-07T14:54:01.120Z,10.3
2023-04-07T14:56:01.097Z,10.3
2023-04-07T14:57:01.165Z,10.2
2023-04-07T14:58:01.091Z,10.3
2023-04-07T15:00:01.128Z,10.1
2023-04-07T15:02:01.118Z,10.1
2023-04-07T15:05:01.029Z,9.9
2023-04-07T15:06:01.321Z,10
2023-04-07T15:09:01.019Z,10
2023-04-07T15:10:01.311Z,10.1
2023-04-07T15:12:01.081Z,10
2023-04-07T15:15:01.175Z,10
2023-04-07T15:17:00.999Z,10
2023-04-07T15:18:01.177Z,9.9
2023-04-07T15:20:01.110Z,9.9
2023-04-07T15:22:01.110Z,10
2023-04-07T15:24:01.065Z,9.8
2023-04-07T15:26:01.080Z,9.8
2023-04-07T15:28:01.111Z,9.9
2023-04-07T15:31:01.009Z,9.8
2023-04-07T15:32:01.181Z,9.6
2023-04-07T15:34:01.180Z,9.6
2023-04-07T15:36:01.250Z,9.6
2023-04-07T15:39:01.010Z,9.8
2023-04-07T15:40:01.121Z,9.7
2023-04-07T15:42:01.182Z,9.9
2023-04-07T15:45:01.111Z,9.7
2023-04-07T15:47:01.116Z,9.6
2023-04-07T15:48:01.195Z,9.7
2023-04-07T15:51:01.047Z,9.5
2023-04-07T15:55:01.088Z,9.4
2023-04-07T15:57:01.012Z,9.5
2023-04-07T15:58:01.306Z,9.4
2023-04-07T16:00:01.389Z,9.4
2023-04-07T16:02:01.224Z,9.5
2023-04-07T16:04:01.256Z,9.3
2023-04-07T16:06:01.055Z,9.4
2023-04-07T16:07:01.122Z,9.2
2023-04-07T16:08:01.178Z,9.3
2023-04-07T16:11:01.004Z,9
2023-04-07T16:12:01.108Z,8.9
2023-04-07T16:14:01.101Z,8.8
2023-04-07T16:16:01.106Z,8.7
2023-04-07T16:19:00.961Z,8.7
2023-04-07T16:20:01.289Z,8.6
2023-04-07T16:22:01.156Z,8.4
2023-04-07T16:24:01.160Z,8.4
2023-04-07T16:26:01.065Z,8.6
2023-04-07T16:29:01.042Z,8.4
2023-04-07T16:31:00.975Z,8.2
2023-04-07T16:32:01.140Z,8.4
2023-04-07T16:33:01.221Z,8.3
2023-04-07T16:35:01.175Z,8.3
2023-04-07T16:36:01.175Z,8.4
2023-04-07T16:40:01.099Z,8.3
2023-04-07T16:42:01.068Z,8.2
2023-04-07T16:44:01.097Z,8
2023-04-07T16:47:02.907Z,8
2023-04-07T16:49:01.033Z,7.8
2023-04-07T16:50:01.515Z,8
2023-04-07T16:52:01.404Z,8.1
2023-04-07T16:55:00.990Z,7.8
2023-04-07T16:58:01.071Z,7.9
2023-04-07T17:00:01.299Z,7.8
2023-04-07T17:03:01.148Z,7.9
2023-04-07T17:05:01.049Z,7.8
2023-04-07T17:08:01.119Z,7.9
2023-04-07T17:13:01.061Z,7.8
2023-04-07T17:17:01.024Z,7.7
2023-04-07T17:21:00.983Z,7.8
2023-04-07T17:22:01.064Z,7.7
2023-04-07T17:24:01.130Z,7.8
2023-04-07T17:26:01.068Z,7.7
2023-04-07T17:29:01.147Z,7.7
2023-04-07T17:31:00.980Z,7.6
2023-04-07T17:33:01.037Z,7.8
2023-04-07T17:34:01.107Z,7.7
2023-04-07T17:36:01.271Z,7.6
2023-04-07T17:38:01.166Z,7.8
2023-04-07T17:40:01.222Z,7.6
2023-04-07T17:44:01.172Z,7.8
2023-04-07T17:46:01.154Z,7.7
2023-04-07T17:49:01.072Z,7.6
2023-04-07T17:50:01.106Z,7.5
2023-04-07T17:52:01.079Z,7.7
2023-04-07T17:53:01.071Z,7.6
2023-04-07T17:54:01.096Z,7.5
2023-04-07T18:01:01.111Z,7.5
2023-04-07T18:04:01.803Z,7.6
2023-04-07T18:08:01.071Z,7.5
2023-04-07T18:10:01.062Z,7.6
2023-04-07T18:12:01.260Z,7.5
2023-04-07T18:18:01.210Z,7.4
2023-04-07T18:24:01.199Z,7.5
2023-04-07T18:27:01.089Z,7.4
2023-04-07T18:28:01.087Z,7.3
2023-04-07T18:30:01.229Z,7.5
2023-04-07T18:33:01.027Z,7.3
2023-04-07T18:37:01.193Z,7.4
2023-04-07T18:39:01.209Z,7.3
2023-04-07T18:43:00.994Z,7.4
2023-04-07T18:45:01.049Z,7.3
2023-04-07T18:47:01.109Z,7.4
2023-04-07T18:48:01.086Z,7.2
2023-04-07T18:50:01.102Z,7.2
2023-04-07T18:53:00.977Z,7.1
2023-04-07T18:55:00.975Z,7.2
2023-04-07T18:56:01.067Z,7
2023-04-07T19:00:01.146Z,6.9
2023-04-07T19:03:01.352Z,6.8
2023-04-07T19:08:01.113Z,6.7
2023-04-07T19:10:01.081Z,6.7
2023-04-07T19:12:01.129Z,6.8
2023-04-07T19:13:01.169Z,6.6
2023-04-07T19:14:01.127Z,6.8
2023-04-07T19:16:01.161Z,6.7
2023-04-07T19:18:01.211Z,6.6
2023-04-07T19:21:00.970Z,6.6
2023-04-07T19:22:01.122Z,6.7
2023-04-07T19:28:01.141Z,6.5
2023-04-07T19:29:01.334Z,6.6
2023-04-07T19:31:01.088Z,6.5
2023-04-07T19:33:01.092Z,6.6
2023-04-07T19:34:01.252Z,6.4
2023-04-07T19:35:01.102Z,6.5
2023-04-07T19:36:01.197Z,6.6
2023-04-07T19:39:01.173Z,6.4
2023-04-07T19:41:01.103Z,6.5
2023-04-07T19:43:01.004Z,6.3
2023-04-07T19:44:01.148Z,6.5
2023-04-07T19:46:01.176Z,6.2
2023-04-07T19:48:01.128Z,6.2
2023-04-07T19:53:01.035Z,6.3
2023-04-07T19:54:01.149Z,6.2
2023-04-07T19:59:01.069Z,6.1
2023-04-07T20:01:01.150Z,6.2
2023-04-07T20:04:01.167Z,6.1
2023-04-07T20:09:00.989Z,5.8
2023-04-07T20:11:01.124Z,5.9
2023-04-07T20:13:01.008Z,5.8
2023-04-07T20:14:01.223Z,5.9
2023-04-07T20:17:01.166Z,5.7
2023-04-07T20:18:01.135Z,6
2023-04-07T20:20:01.123Z,5.8
2023-04-07T20:25:01.238Z,5.7
2023-04-07T20:27:01.126Z,5.9
2023-04-07T20:29:00.978Z,5.7
2023-04-07T20:32:01.036Z,5.6
2023-04-07T20:34:01.044Z,5.7
2023-04-07T20:39:00.991Z,5.6
2023-04-07T20:40:01.229Z,5.7
2023-04-07T20:45:01.311Z,5.5
2023-04-07T20:47:01.042Z,5.5
2023-04-07T20:49:01.083Z,5.6
2023-04-07T20:52:01.194Z,5.5
2023-04-07T20:55:00.981Z,5.5
2023-04-07T21:00:01.336Z,5.4
2023-04-07T21:02:01.132Z,5.1
2023-04-07T21:04:01.394Z,5.3
2023-04-07T21:06:01.174Z,5.4
2023-04-07T21:10:01.067Z,5.4
2023-04-07T21:11:01.133Z,5.3
2023-04-07T21:14:01.092Z,5.2
2023-04-07T21:25:01.233Z,5.1
2023-04-07T21:27:01.101Z,5.2
2023-04-07T21:28:01.126Z,5.1
2023-04-07T21:31:01.044Z,5.2
2023-04-07T21:32:01.175Z,5.1
2023-04-07T21:34:01.152Z,5.2
2023-04-07T21:36:01.141Z,5.1
2023-04-07T21:38:01.136Z,5.2
2023-04-07T21:39:01.152Z,5.1
2023-04-07T21:40:01.269Z,5.2
2023-04-07T21:42:01.338Z,5.1
2023-04-07T21:44:01.255Z,5.2
2023-04-07T21:47:01.019Z,5.3
2023-04-07T21:48:01.211Z,5.1
2023-04-07T21:57:01.209Z,5.2
2023-04-07T21:59:01.038Z,5.3
2023-04-07T22:00:01.549Z,5.1
2023-04-07T22:07:01.059Z,5
2023-04-07T22:08:01.076Z,5.2
2023-04-07T22:11:01.049Z,5.1
2023-04-07T22:14:01.252Z,5
2023-04-07T22:16:01.218Z,5
2023-04-07T22:18:01.070Z,5.1
2023-04-07T22:20:01.096Z,5.1
2023-04-07T22:22:01.117Z,4.9
2023-04-07T22:24:01.073Z,5
2023-04-07T22:30:01.172Z,4.7
2023-04-07T22:32:01.085Z,4.8
2023-04-07T22:34:01.106Z,4.7
2023-04-07T22:36:01.121Z,4.8
2023-04-07T22:38:01.092Z,4.7
2023-04-07T22:40:01.259Z,4.7
2023-04-07T22:46:01.092Z,4.5
2023-04-07T22:49:01.038Z,4.4
2023-04-07T22:50:01.070Z,4.5
2023-04-07T22:53:01.091Z,4.4
2023-04-07T22:55:01.003Z,4.3
2023-04-07T22:56:01.156Z,4.5
2023-04-07T22:58:01.110Z,4.5
2023-04-07T23:01:01.054Z,4.4
2023-04-07T23:02:01.123Z,4.3
2023-04-07T23:08:01.105Z,4.4
2023-04-07T23:09:01.094Z,4.2
2023-04-07T23:11:01.123Z,4.3
2023-04-07T23:18:01.114Z,4.1
2023-04-07T23:19:01.183Z,4.2
2023-04-07T23:21:01.123Z,4
2023-04-07T23:32:01.169Z,3.8
2023-04-07T23:34:01.178Z,3.9
2023-04-07T23:36:01.249Z,3.8
2023-04-07T23:38:01.095Z,3.9
2023-04-07T23:41:00.987Z,4
2023-04-07T23:42:01.457Z,3.7
2023-04-07T23:44:01.128Z,3.8
2023-04-07T23:50:01.139Z,3.9
2023-04-07T23:51:01.158Z,3.8
2023-04-07T23:52:01.240Z,3.7
2023-04-07T23:56:01.190Z,3.8
2023-04-07T23:57:01.227Z,3.7
2023-04-07T23:58:01.202Z,3.8
2023-04-07T23:59:01.206Z,3.7
